Time;durP1;ratioP1;P1;durP2;ratioP2;P2;SDS_P1;SDS_P2;PMS_P1;PMS_P2;Temp;Humidity;BMP_temperature;BMP_pressure;BME280_temperature;BME280_humidity;BME280_pressure;Samples;Min_cycle;Max_cycle;Signal;HPM_P1;HPM_P2
2021/06/16 00:01:07;;;;;;;5.57;2.10;;;14.20;99.90;;;;;;5067074;28;20231;-64
2021/06/16 00:03:35;;;;;;;4.53;1.90;;;14.20;99.90;;;;;;5066815;28;20655;-64
2021/06/16 00:06:03;;;;;;;2.77;1.90;;;14.30;99.90;;;;;;5067108;28;20241;-64
2021/06/16 00:08:33;;;;;;;3.83;2.00;;;14.30;99.90;;;;;;5070115;28;20478;-64
2021/06/16 00:11:01;;;;;;;5.27;2.50;;;14.20;99.90;;;;;;5071034;28;20235;-64
2021/06/16 00:13:29;;;;;;;3.60;2.07;;;14.20;99.90;;;;;;5070655;28;20292;-63
2021/06/16 00:15:57;;;;;;;3.57;2.60;;;14.10;99.90;;;;;;5070998;28;20605;-64
2021/06/16 00:18:25;;;;;;;4.83;2.07;;;14.10;99.90;;;;;;5070579;28;20313;-64
2021/06/16 00:20:53;;;;;;;4.03;1.77;;;14.00;99.90;;;;;;5070498;28;20237;-63
2021/06/16 00:23:22;;;;;;;3.40;1.97;;;14.00;99.90;;;;;;5070742;28;20350;-63
2021/06/16 00:25:52;;;;;;;4.53;1.90;;;14.00;99.90;;;;;;5070953;28;20900;-63
2021/06/16 00:28:21;;;;;;;5.73;2.20;;;13.90;99.90;;;;;;5070310;28;20721;-64
2021/06/16 00:30:49;;;;;;;3.73;2.20;;;13.90;99.90;;;;;;5071051;28;20261;-64
2021/06/16 00:33:18;;;;;;;5.87;2.27;;;13.90;99.90;;;;;;5070778;28;20238;-64
2021/06/16 00:35:46;;;;;;;3.20;1.90;;;14.00;99.90;;;;;;5070699;28;20238;-63
2021/06/16 00:38:14;;;;;;;3.03;2.20;;;14.00;99.90;;;;;;5070029;28;20246;-63
2021/06/16 00:40:43;;;;;;;4.90;2.07;;;14.00;99.90;;;;;;5070662;28;20242;-64
2021/06/16 00:43:13;;;;;;;4.47;1.90;;;13.90;99.90;;;;;;5070382;28;20246;-64
2021/06/16 00:45:41;;;;;;;7.00;2.63;;;13.90;99.90;;;;;;5070325;28;20278;-64
2021/06/16 00:48:10;;;;;;;4.13;2.10;;;13.90;99.90;;;;;;5070550;28;20586;-64
2021/06/16 00:50:40;;;;;;;4.87;2.10;;;14.00;99.90;;;;;;5070391;28;20237;-64
2021/06/16 00:53:09;;;;;;;3.70;2.27;;;13.90;99.90;;;;;;5069977;28;20243;-64
2021/06/16 00:55:38;;;;;;;3.77;2.53;;;13.80;99.90;;;;;;5070244;28;20231;-65
2021/06/16 00:58:10;;;;;;;6.37;2.60;;;13.90;99.90;;;;;;5070364;28;20245;-64
2021/06/16 01:00:44;;;;;;;5.30;2.30;;;13.90;99.90;;;;;;5070473;28;20254;-64
2021/06/16 01:03:17;;;;;;;3.80;2.37;;;13.90;99.90;;;;;;5069970;28;20235;-64
2021/06/16 01:05:48;;;;;;;4.83;2.60;;;13.90;99.90;;;;;;5059672;28;20243;-64
2021/06/16 01:08:19;;;;;;;5.70;2.40;;;13.80;99.90;;;;;;5069244;28;20227;-64
2021/06/16 01:10:49;;;;;;;5.67;2.60;;;13.70;99.90;;;;;;5070071;28;20288;-64
2021/06/16 01:13:24;;;;;;;2.60;2.20;;;13.60;99.90;;;;;;5069988;28;20242;-64
2021/06/16 01:16:01;;;;;;;3.27;2.23;;;13.50;99.90;;;;;;5069392;28;20263;-64
2021/06/16 01:18:34;;;;;;;3.77;2.27;;;13.50;99.90;;;;;;5068450;28;20725;-64
2021/06/16 01:21:03;;;;;;;3.77;2.13;;;13.50;99.90;;;;;;5069557;28;20756;-64
2021/06/16 01:24:04;;;;;;;4.03;2.10;;;13.50;99.90;;;;;;5069598;28;20871;-64
2021/06/16 01:26:37;;;;;;;3.37;2.10;;;13.50;99.90;;;;;;5062334;28;20645;-64
2021/06/16 01:29:11;;;;;;;2.43;1.93;;;13.40;99.90;;;;;;5069446;28;20243;-64
2021/06/16 01:31:41;;;;;;;3.20;1.80;;;13.40;99.90;;;;;;5069578;28;20235;-64
2021/06/16 01:34:10;;;;;;;6.03;2.33;;;13.40;99.90;;;;;;5069436;28;20236;-65
2021/06/16 01:36:42;;;;;;;3.30;2.17;;;13.40;99.90;;;;;;5078308;28;20581;-64
2021/06/16 01:39:13;;;;;;;4.43;2.27;;;13.40;99.90;;;;;;5076462;28;20239;-64
2021/06/16 01:41:44;;;;;;;3.43;2.30;;;13.30;99.90;;;;;;5073462;28;20246;-64
2021/06/16 01:44:14;;;;;;;2.67;1.83;;;13.20;99.90;;;;;;5070540;28;20474;-64
2021/06/16 01:46:45;;;;;;;3.43;2.20;;;13.20;99.90;;;;;;5075422;28;20729;-64
2021/06/16 01:49:14;;;;;;;3.80;2.50;;;13.10;99.90;;;;;;5069099;28;20245;-63
2021/06/16 01:51:42;;;;;;;3.73;2.30;;;13.10;99.90;;;;;;5068778;28;20239;-63
2021/06/16 01:54:12;;;;;;;2.20;1.73;;;13.20;99.90;;;;;;5069112;28;20239;-64
2021/06/16 01:56:43;;;;;;;2.77;2.23;;;13.10;99.90;;;;;;5068852;28;20238;-64
2021/06/16 01:59:13;;;;;;;3.07;2.07;;;13.10;99.90;;;;;;5070267;28;20239;-65
2021/06/16 02:01:41;;;;;;;3.13;2.00;;;13.10;99.90;;;;;;5074920;28;20239;-64
2021/06/16 02:04:09;;;;;;;2.73;2.13;;;13.10;99.90;;;;;;5068485;28;20246;-63
2021/06/16 02:06:41;;;;;;;1.90;1.70;;;13.00;99.90;;;;;;5075365;28;20235;-64
2021/06/16 02:09:12;;;;;;;1.90;1.80;;;13.10;99.90;;;;;;5068869;28;20244;-64
2021/06/16 02:11:44;;;;;;;3.23;2.00;;;13.10;99.90;;;;;;5068386;28;20655;-64
2021/06/16 02:14:14;;;;;;;4.53;2.13;;;13.10;99.90;;;;;;5069687;28;20261;-64
2021/06/16 02:16:47;;;;;;;4.70;2.33;;;13.10;99.90;;;;;;5074382;28;20234;-64
2021/06/16 02:19:30;;;;;;;3.63;2.40;;;13.00;99.90;;;;;;1748428;28;10022842;-64
2021/06/16 02:21:59;;;;;;;3.00;2.07;;;13.00;99.90;;;;;;4698230;28;10001077;-64
2021/06/16 02:24:29;;;;;;;2.70;2.10;;;12.90;99.90;;;;;;5048282;28;20234;-65
2021/06/16 02:26:58;;;;;;;2.77;1.97;;;12.90;99.90;;;;;;5048414;28;20661;-64
2021/06/16 02:29:29;;;;;;;2.53;1.90;;;13.10;99.90;;;;;;5067478;28;20229;-64
2021/06/16 02:31:57;;;;;;;2.40;1.80;;;12.90;99.90;;;;;;5068028;28;20248;-63
2021/06/16 02:34:26;;;;;;;2.63;2.13;;;12.80;99.90;;;;;;5068022;28;20705;-64
2021/06/16 02:36:58;;;;;;;3.90;2.30;;;12.90;99.90;;;;;;5067959;28;20250;-64
2021/06/16 02:39:33;;;;;;;2.47;2.10;;;12.80;99.90;;;;;;5068220;28;20234;-63
2021/06/16 02:42:05;;;;;;;2.53;2.10;;;12.90;99.90;;;;;;5067723;28;20318;-64
2021/06/16 02:44:33;;;;;;;4.93;2.17;;;12.90;99.90;;;;;;5068025;28;20775;-64
2021/06/16 02:47:06;;;;;;;3.57;2.23;;;12.90;99.90;;;;;;5068050;28;20242;-64
2021/06/16 02:49:38;;;;;;;2.40;2.20;;;13.00;99.90;;;;;;5067409;28;20299;-65
2021/06/16 02:52:12;;;;;;;2.63;2.40;;;13.00;99.90;;;;;;5067663;28;20300;-63
2021/06/16 02:54:43;;;;;;;3.00;2.50;;;12.80;99.90;;;;;;5067423;28;20286;-64
2021/06/16 02:57:18;;;;;;;2.40;2.20;;;12.70;99.90;;;;;;5068045;28;20238;-63
2021/06/16 02:59:48;;;;;;;3.97;2.50;;;12.60;99.90;;;;;;5067539;28;20295;-65
2021/06/16 03:02:17;;;;;;;4.10;2.47;;;12.50;99.90;;;;;;5067732;28;20258;-64
2021/06/16 03:04:47;;;;;;;2.67;2.20;;;12.40;99.90;;;;;;5067482;28;20237;-63
2021/06/16 03:07:17;;;;;;;3.70;2.00;;;12.40;99.90;;;;;;5067389;28;20312;-64
2021/06/16 03:09:46;;;;;;;3.43;2.23;;;12.40;99.90;;;;;;5067557;28;20635;-64
2021/06/16 03:12:18;;;;;;;3.00;2.27;;;12.30;99.90;;;;;;5067147;28;20237;-64
2021/06/16 03:14:48;;;;;;;2.93;2.20;;;12.30;99.90;;;;;;5067349;28;20268;-63
2021/06/16 03:17:19;;;;;;;3.70;2.33;;;12.30;99.90;;;;;;5067772;28;20235;-64
2021/06/16 03:19:48;;;;;;;4.70;2.50;;;12.40;99.90;;;;;;5067549;28;20234;-64
2021/06/16 03:22:18;;;;;;;3.93;2.20;;;12.40;99.90;;;;;;5067262;28;20619;-64
2021/06/16 03:24:48;;;;;;;6.40;2.37;;;12.30;99.90;;;;;;5069413;28;20241;-64
2021/06/16 03:27:21;;;;;;;3.10;2.50;;;12.40;99.90;;;;;;5066684;28;20694;-64
2021/06/16 03:29:52;;;;;;;3.07;2.10;;;12.40;99.90;;;;;;5066235;28;20241;-64
2021/06/16 03:32:23;;;;;;;3.97;2.30;;;12.40;99.90;;;;;;5066282;28;20255;-65
2021/06/16 03:34:51;;;;;;;2.13;1.97;;;12.40;99.90;;;;;;5066093;28;20254;-63
2021/06/16 03:37:20;;;;;;;2.33;2.00;;;12.40;99.90;;;;;;5065991;28;20288;-65
2021/06/16 03:39:52;;;;;;;3.47;2.20;;;12.40;99.90;;;;;;5065830;28;20709;-63
2021/06/16 03:42:22;;;;;;;2.90;2.20;;;12.50;99.90;;;;;;5064261;28;20285;-64
2021/06/16 03:44:51;;;;;;;2.93;2.20;;;12.50;99.90;;;;;;5068324;28;20233;-64
2021/06/16 03:47:22;;;;;;;3.07;2.70;;;12.60;99.90;;;;;;5066027;28;20752;-64
2021/06/16 03:49:51;;;;;;;4.13;2.73;;;12.60;99.90;;;;;;5065995;28;20295;-64
2021/06/16 03:52:21;;;;;;;3.73;2.50;;;12.70;99.90;;;;;;5065699;28;20238;-64
2021/06/16 03:54:50;;;;;;;2.70;2.50;;;12.60;99.90;;;;;;5066039;28;20337;-64
2021/06/16 03:57:22;;;;;;;4.30;2.80;;;12.70;99.90;;;;;;5066096;28;20294;-63
2021/06/16 03:59:50;;;;;;;3.60;2.93;;;12.80;99.90;;;;;;5065654;28;20791;-65
2021/06/16 04:02:19;;;;;;;4.40;2.97;;;12.90;99.90;;;;;;5065321;28;20231;-64
2021/06/16 04:04:48;;;;;;;4.50;3.27;;;12.90;99.90;;;;;;5065723;28;20244;-64
2021/06/16 04:07:17;;;;;;;3.10;2.63;;;13.00;99.90;;;;;;5065813;28;20292;-64
2021/06/16 04:09:48;;;;;;;6.17;3.43;;;13.10;99.90;;;;;;5047310;28;20233;-64
2021/06/16 04:12:16;;;;;;;4.43;3.10;;;13.10;99.90;;;;;;5065700;28;20303;-65
2021/06/16 04:14:47;;;;;;;5.40;2.97;;;13.20;99.90;;;;;;5066095;28;20238;-64
2021/06/16 04:17:18;;;;;;;3.53;3.20;;;13.30;99.90;;;;;;5067139;28;20234;-64
2021/06/16 04:19:46;;;;;;;4.63;2.87;;;13.30;99.90;;;;;;5067035;28;20241;-63
2021/06/16 04:22:15;;;;;;;5.80;3.10;;;13.30;99.90;;;;;;5066657;28;20235;-64
2021/06/16 04:24:43;;;;;;;3.63;2.87;;;13.30;99.90;;;;;;5067099;28;20284;-64
2021/06/16 04:27:11;;;;;;;5.10;3.20;;;13.40;99.90;;;;;;5066527;28;20329;-64
2021/06/16 04:29:41;;;;;;;4.33;3.07;;;13.40;99.90;;;;;;5065813;28;20659;-64
2021/06/16 04:32:11;;;;;;;3.93;3.40;;;13.40;99.90;;;;;;5066131;28;20270;-64
2021/06/16 04:34:40;;;;;;;3.57;3.27;;;13.50;99.90;;;;;;5066371;28;20238;-64
2021/06/16 04:37:10;;;;;;;5.60;3.60;;;13.50;99.90;;;;;;5044872;28;20286;-64
2021/06/16 04:39:38;;;;;;;5.63;3.40;;;13.60;99.90;;;;;;5056647;28;20287;-63
2021/06/16 04:42:07;;;;;;;4.83;3.30;;;13.60;99.90;;;;;;5065882;28;20235;-64
2021/06/16 04:44:36;;;;;;;3.93;3.57;;;13.60;99.90;;;;;;5065947;28;20280;-64
2021/06/16 04:47:05;;;;;;;6.97;3.60;;;13.60;99.90;;;;;;5066198;28;20685;-65
2021/06/16 04:49:34;;;;;;;4.00;3.33;;;13.70;99.90;;;;;;5066388;28;20280;-65
2021/06/16 04:52:02;;;;;;;3.87;3.53;;;13.70;99.90;;;;;;5066268;28;20469;-64
2021/06/16 04:54:30;;;;;;;5.40;3.30;;;13.80;99.90;;;;;;5068630;28;20288;-64
2021/06/16 04:57:04;;;;;;;5.00;3.90;;;13.90;99.90;;;;;;5062115;28;20585;-64
2021/06/16 04:59:32;;;;;;;4.77;3.67;;;14.00;99.90;;;;;;5069774;28;20231;-64
2021/06/16 05:02:01;;;;;;;7.07;4.30;;;14.10;99.90;;;;;;5069522;28;20258;-64
2021/06/16 05:04:30;;;;;;;7.63;4.50;;;14.20;99.90;;;;;;5069332;28;20242;-64
2021/06/16 05:06:59;;;;;;;5.43;4.17;;;14.20;99.90;;;;;;5068774;28;20240;-64
2021/06/16 05:09:27;;;;;;;7.70;4.37;;;14.30;99.90;;;;;;5070246;28;20289;-65
2021/06/16 05:11:55;;;;;;;6.93;4.00;;;14.50;99.90;;;;;;5069918;28;20242;-64
2021/06/16 05:14:24;;;;;;;7.63;4.80;;;14.60;99.90;;;;;;5069819;28;20625;-64
2021/06/16 05:16:54;;;;;;;6.70;3.57;;;14.90;99.90;;;;;;5070077;28;20238;-64
2021/06/16 05:19:23;;;;;;;8.60;4.23;;;15.20;99.90;;;;;;5069787;28;20725;-65
2021/06/16 05:21:52;;;;;;;7.23;4.50;;;15.40;99.90;;;;;;5069482;28;20243;-64
2021/06/16 05:24:21;;;;;;;8.97;3.93;;;15.80;99.90;;;;;;5067028;28;21588;-65
2021/06/16 05:26:49;;;;;;;8.83;3.50;;;16.10;99.90;;;;;;5066768;28;20758;-64
2021/06/16 05:29:17;;;;;;;9.30;4.10;;;16.30;99.90;;;;;;5066909;28;20239;-64
2021/06/16 05:31:46;;;;;;;7.43;3.70;;;16.60;99.90;;;;;;5067380;28;20326;-64
2021/06/16 05:34:14;;;;;;;10.77;3.90;;;16.70;99.90;;;;;;5049392;28;20243;-64
2021/06/16 05:36:42;;;;;;;9.40;3.80;;;17.00;99.90;;;;;;5067616;28;20314;-66
2021/06/16 05:39:10;;;;;;;7.97;3.20;;;17.20;99.90;;;;;;5066671;28;20239;-66
2021/06/16 05:41:40;;;;;;;8.80;2.87;;;17.50;99.90;;;;;;5067475;28;20261;-66
2021/06/16 05:44:08;;;;;;;7.23;2.80;;;17.80;99.90;;;;;;5069054;28;20564;-67
2021/06/16 05:46:36;;;;;;;6.83;2.50;;;18.10;99.90;;;;;;5068533;28;20235;-67
2021/06/16 05:49:04;;;;;;;8.95;2.70;;;18.30;99.90;;;;;;5068527;28;20933;-65
2021/06/16 05:51:32;;;;;;;3.87;2.30;;;18.40;99.90;;;;;;5070688;28;20230;-68
2021/06/16 05:54:00;;;;;;;6.60;2.20;;;18.70;99.90;;;;;;5065918;28;20286;-68
2021/06/16 05:56:28;;;;;;;4.30;1.97;;;19.10;99.90;;;;;;5069082;28;20246;-68
2021/06/16 05:58:58;;;;;;;5.75;1.70;;;19.20;99.90;;;;;;5068702;28;20442;-62
2021/06/16 06:01:26;;;;;;;4.57;1.80;;;19.40;99.90;;;;;;5060743;28;20239;-63
2021/06/16 06:03:54;;;;;;;4.30;1.83;;;19.60;99.90;;;;;;5057817;28;20241;-60
2021/06/16 06:06:22;;;;;;;4.23;1.73;;;19.90;99.90;;;;;;5067456;28;20233;-62
2021/06/16 06:08:50;;;;;;;6.60;1.77;;;20.10;99.90;;;;;;5067438;28;20507;-64
2021/06/16 06:11:21;;;;;;;3.93;1.70;;;20.30;99.90;;;;;;5068477;28;20243;-63
2021/06/16 06:13:49;;;;;;;3.83;1.43;;;20.40;99.90;;;;;;5068391;28;20241;-63
2021/06/16 06:16:19;;;;;;;4.40;1.80;;;20.70;99.90;;;;;;5068870;28;20233;-63
2021/06/16 06:18:47;;;;;;;5.23;1.70;;;20.70;99.90;;;;;;5074571;28;20538;-63
2021/06/16 06:21:15;;;;;;;3.97;1.67;;;20.90;99.90;;;;;;5067608;28;20231;-63
2021/06/16 06:23:43;;;;;;;5.93;1.50;;;21.00;99.90;;;;;;5067151;28;20234;-63
2021/06/16 06:26:12;;;;;;;4.20;1.70;;;21.20;99.90;;;;;;5067892;28;20238;-64
2021/06/16 06:28:42;;;;;;;4.23;1.87;;;21.30;99.90;;;;;;5067969;28;20234;-63
2021/06/16 06:31:11;;;;;;;5.53;1.60;;;21.20;99.90;;;;;;5067622;28;20250;-63
2021/06/16 06:33:40;;;;;;;3.20;1.30;;;21.20;99.90;;;;;;5067608;28;20241;-63
2021/06/16 06:36:08;;;;;;;5.93;1.70;;;21.30;99.90;;;;;;5067566;28;20238;-63
2021/06/16 06:38:36;;;;;;;4.23;1.50;;;21.40;99.90;;;;;;5066037;28;20857;-62
2021/06/16 06:41:04;;;;;;;5.63;1.40;;;21.70;99.90;;;;;;5066035;28;20270;-62
2021/06/16 06:43:33;;;;;;;4.43;1.57;;;21.90;99.90;;;;;;5066093;28;20227;-62
2021/06/16 06:46:01;;;;;;;3.43;1.33;;;22.20;99.90;;;;;;5067416;28;20244;-63
2021/06/16 06:48:29;;;;;;;1.97;1.10;;;22.50;99.90;;;;;;5067376;28;20235;-62
2021/06/16 06:50:59;;;;;;;5.10;1.20;;;22.50;99.90;;;;;;5066094;28;20641;-62
2021/06/16 06:53:29;;;;;;;3.97;1.30;;;22.60;99.90;;;;;;5060670;28;20706;-62
2021/06/16 06:55:58;;;;;;;3.17;1.43;;;22.80;99.90;;;;;;5064445;28;20277;-63
2021/06/16 06:58:26;;;;;;;6.43;1.50;;;23.10;99.90;;;;;;5064354;28;20231;-62
2021/06/16 07:00:54;;;;;;;3.93;1.60;;;23.00;99.90;;;;;;5064178;28;20762;-63
2021/06/16 07:03:23;;;;;;;4.43;1.30;;;23.20;99.90;;;;;;5063009;28;20238;-63
2021/06/16 07:05:51;;;;;;;5.77;1.70;;;23.30;99.90;;;;;;5047400;28;20263;-62
2021/06/16 07:08:20;;;;;;;3.33;1.40;;;23.40;99.90;;;;;;5064419;28;20769;-63
2021/06/16 07:10:49;;;;;;;3.87;1.50;;;23.80;99.90;;;;;;5063872;28;20567;-63
2021/06/16 07:13:17;;;;;;;5.73;1.50;;;23.80;99.90;;;;;;5067035;28;20696;-63
2021/06/16 07:16:05;;;;;;;4.67;1.40;;;23.90;99.90;;;;;;5067048;28;20375;-62
2021/06/16 07:18:33;;;;;;;5.77;1.73;;;23.90;99.90;;;;;;5050121;28;20234;-63
2021/06/16 07:21:02;;;;;;;5.03;1.60;;;24.40;99.90;;;;;;5069616;28;20242;-62
2021/06/16 07:23:31;;;;;;;4.37;1.60;;;24.40;99.90;;;;;;5065915;28;20694;-62
2021/06/16 07:25:59;;;;;;;4.77;1.90;;;24.40;99.90;;;;;;5056358;28;20239;-62
2021/06/16 07:28:28;;;;;;;3.93;1.47;;;23.70;99.90;;;;;;5064071;28;20312;-62
2021/06/16 07:30:56;;;;;;;3.33;1.57;;;23.60;99.90;;;;;;5063134;28;20246;-63
2021/06/16 07:33:24;;;;;;;4.23;1.57;;;23.80;99.90;;;;;;5063671;28;20273;-63
2021/06/16 07:35:52;;;;;;;6.10;1.73;;;24.30;99.90;;;;;;5060772;28;20234;-62
2021/06/16 07:38:20;;;;;;;4.17;1.40;;;24.40;99.90;;;;;;5063870;28;20645;-63
2021/06/16 07:40:50;;;;;;;4.87;1.90;;;24.50;99.90;;;;;;5063843;28;20246;-63
2021/06/16 07:43:18;;;;;;;3.97;1.50;;;24.30;99.90;;;;;;5063488;28;20564;-63
2021/06/16 07:45:46;;;;;;;4.63;1.80;;;24.60;99.90;;;;;;5063833;28;20239;-62
2021/06/16 07:48:14;;;;;;;4.33;1.37;;;24.90;99.90;;;;;;5063685;28;20310;-63
2021/06/16 07:50:43;;;;;;;3.60;1.37;;;25.30;99.90;;;;;;5063732;28;20315;-62
2021/06/16 07:53:11;;;;;;;3.83;1.40;;;25.50;99.90;;;;;;5063496;28;20236;-62
2021/06/16 07:55:40;;;;;;;3.57;1.40;;;25.80;99.90;;;;;;5064573;28;20224;-62
2021/06/16 07:58:10;;;;;;;3.37;1.40;;;25.80;99.90;;;;;;5078232;28;20323;-63
2021/06/16 08:00:38;;;;;;;6.10;1.53;;;25.80;99.90;;;;;;5063630;28;20229;-62
2021/06/16 08:03:07;;;;;;;3.90;1.83;;;25.20;99.90;;;;;;5063317;28;20588;-63
2021/06/16 08:05:35;;;;;;;7.97;1.70;;;25.00;99.90;;;;;;5063176;28;20326;-63
2021/06/16 08:08:03;;;;;;;3.90;1.57;;;24.80;99.90;;;;;;5063464;28;20248;-63
2021/06/16 08:10:31;;;;;;;6.60;1.67;;;25.30;99.90;;;;;;5063131;28;20320;-63
2021/06/16 08:13:00;;;;;;;6.90;1.90;;;25.20;99.90;;;;;;5063474;28;20239;-62
2021/06/16 08:15:29;;;;;;;6.57;1.80;;;25.00;99.90;;;;;;5068110;28;20249;-62
2021/06/16 08:17:58;;;;;;;7.30;1.60;;;25.30;99.90;;;;;;5063254;28;20240;-63
2021/06/16 08:20:26;;;;;;;7.40;1.73;;;25.30;99.90;;;;;;5061499;28;20265;-62
2021/06/16 08:22:54;;;;;;;4.53;1.53;;;25.20;99.90;;;;;;5062567;28;20233;-63
2021/06/16 08:25:23;;;;;;;3.63;1.43;;;25.10;99.80;;;;;;5062758;28;20240;-63
2021/06/16 08:27:54;;;;;;;4.27;1.30;;;25.00;99.90;;;;;;5063681;28;20266;-62
2021/06/16 08:30:22;;;;;;;7.07;1.80;;;24.80;99.60;;;;;;5067349;28;20262;-63
2021/06/16 08:32:52;;;;;;;4.07;1.37;;;24.90;99.20;;;;;;5067498;28;20651;-62
2021/06/16 08:35:20;;;;;;;4.63;1.60;;;24.90;99.90;;;;;;5067044;28;20240;-62
2021/06/16 08:37:48;;;;;;;3.60;1.40;;;25.10;99.90;;;;;;5067178;28;20241;-62
2021/06/16 08:40:17;;;;;;;4.30;1.63;;;25.40;99.40;;;;;;5066799;28;20232;-62
2021/06/16 08:42:47;;;;;;;3.27;1.30;;;25.20;98.10;;;;;;5066941;28;20235;-63
2021/06/16 08:45:16;;;;;;;6.03;1.37;;;25.40;98.60;;;;;;5066672;28;20241;-63
2021/06/16 08:47:46;;;;;;;5.40;1.60;;;25.70;98.50;;;;;;5066214;28;20241;-62
2021/06/16 08:50:17;;;;;;;7.40;1.57;;;25.90;98.20;;;;;;5066554;28;20246;-63
2021/06/16 08:52:46;;;;;;;2.63;1.30;;;26.50;97.70;;;;;;5067658;28;20685;-62
2021/06/16 08:55:17;;;;;;;4.13;1.40;;;26.30;96.30;;;;;;5073469;28;20634;-62
2021/06/16 08:57:45;;;;;;;6.63;1.47;;;26.50;96.10;;;;;;5067948;28;20721;-63
2021/06/16 09:00:15;;;;;;;4.67;1.43;;;26.80;95.60;;;;;;5070292;28;20249;-63
2021/06/16 09:02:43;;;;;;;4.10;1.23;;;26.70;96.80;;;;;;5073247;28;20714;-63
2021/06/16 09:05:13;;;;;;;4.60;1.47;;;26.50;96.00;;;;;;5075426;28;20604;-63
2021/06/16 09:07:45;;;;;;;4.77;1.40;;;27.00;96.30;;;;;;5070538;28;20246;-62
2021/06/16 09:10:15;;;;;;;4.07;1.33;;;27.50;96.40;;;;;;5070693;28;20730;-62
2021/06/16 09:12:50;;;;;;;4.87;1.50;;;27.40;95.30;;;;;;5067541;28;20322;-63
2021/06/16 09:15:20;;;;;;;6.40;1.90;;;26.90;95.60;;;;;;5065377;28;20246;-63
2021/06/16 09:18:00;;;;;;;3.23;1.60;;;27.10;96.20;;;;;;5066063;28;20298;-63
2021/06/16 09:20:31;;;;;;;6.07;1.67;;;27.20;96.40;;;;;;5065539;28;20340;-62
2021/06/16 09:23:12;;;;;;;5.53;1.73;;;27.10;95.90;;;;;;5065997;28;20257;-62
2021/06/16 09:25:41;;;;;;;3.07;1.27;;;27.10;95.50;;;;;;5064306;28;20236;-63
2021/06/16 09:28:09;;;;;;;2.97;1.20;;;27.00;95.70;;;;;;5065669;28;20243;-63
2021/06/16 09:30:42;;;;;;;3.23;1.20;;;27.20;95.90;;;;;;5065944;28;20260;-62
2021/06/16 09:33:13;;;;;;;4.07;1.57;;;27.30;95.50;;;;;;5066418;28;20242;-63
2021/06/16 09:35:43;;;;;;;4.30;1.40;;;27.50;95.70;;;;;;5065391;28;20225;-63
2021/06/16 09:38:23;;;;;;;5.67;1.97;;;27.60;96.00;;;;;;5066062;28;20242;-62
2021/06/16 09:40:52;;;;;;;5.17;1.80;;;28.00;95.70;;;;;;5065229;28;20311;-62
2021/06/16 09:43:22;;;;;;;4.70;1.67;;;27.50;96.00;;;;;;5066291;28;21430;-62
2021/06/16 09:45:57;;;;;;;3.23;1.30;;;28.30;96.10;;;;;;5066351;28;20246;-63
2021/06/16 09:48:28;;;;;;;3.73;1.50;;;28.50;94.70;;;;;;5064207;28;20875;-62
2021/06/16 09:51:11;;;;;;;6.53;1.67;;;28.30;94.80;;;;;;5057959;28;20773;-62
2021/06/16 09:54:15;;;;;;;5.30;1.63;;;28.60;95.10;;;;;;5065596;28;20238;-62
2021/06/16 09:56:46;;;;;;;6.73;1.80;;;28.80;95.30;;;;;;5067328;28;20672;-63
2021/06/16 09:59:36;;;;;;;5.23;1.73;;;28.90;94.50;;;;;;5065705;28;20606;-62
2021/06/16 10:02:05;;;;;;;4.27;1.33;;;29.00;93.80;;;;;;5065530;28;20790;-62
2021/06/16 10:04:41;;;;;;;5.50;1.80;;;28.80;94.70;;;;;;5065156;28;20296;-63
2021/06/16 10:07:12;;;;;;;5.23;1.50;;;28.30;94.60;;;;;;5062562;28;20269;-62
2021/06/16 10:09:48;;;;;;;4.03;1.53;;;28.50;95.40;;;;;;5064388;28;20245;-62
2021/06/16 10:12:16;;;;;;;4.53;1.50;;;28.80;95.40;;;;;;5060812;28;20247;-63
2021/06/16 10:14:45;;;;;;;5.37;1.60;;;29.10;93.10;;;;;;5064508;28;20235;-62
2021/06/16 10:17:15;;;;;;;3.97;1.50;;;28.90;94.40;;;;;;5065190;28;20364;-61
2021/06/16 10:19:45;;;;;;;4.53;1.70;;;29.20;94.60;;;;;;5064660;28;20315;-63
2021/06/16 10:22:14;;;;;;;3.87;1.60;;;29.20;94.20;;;;;;5066032;28;20385;-62
2021/06/16 10:24:44;;;;;;;5.17;1.60;;;29.10;93.00;;;;;;5067213;28;20753;-63
2021/06/16 10:27:18;;;;;;;4.57;1.50;;;29.10;93.00;;;;;;5062951;28;20418;-62
2021/06/16 10:29:49;;;;;;;4.53;1.70;;;29.90;93.90;;;;;;5064384;28;20239;-62
2021/06/16 10:32:18;;;;;;;1.97;1.30;;;29.90;92.80;;;;;;5064784;28;20243;-62
2021/06/16 10:34:58;;;;;;;4.60;1.60;;;29.80;92.40;;;;;;5064276;28;20235;-62
2021/06/16 10:37:30;;;;;;;4.10;1.37;;;30.50;92.50;;;;;;5045898;28;20845;-62
2021/06/16 10:40:32;;;;;;;4.53;1.90;;;30.60;91.90;;;;;;5064302;28;20713;-62
2021/06/16 10:43:29;;;;;;;5.17;1.57;;;29.90;91.00;;;;;;5039841;28;20238;-62
2021/06/16 10:46:11;;;;;;;3.07;1.20;;;29.70;92.30;;;;;;5064619;28;20594;-62
2021/06/16 10:49:01;;;;;;;5.63;1.70;;;29.60;92.50;;;;;;5064532;28;20280;-61
2021/06/16 10:51:41;;;;;;;4.03;1.37;;;29.90;91.90;;;;;;5056636;28;20270;-62
2021/06/16 10:54:21;;;;;;;5.37;1.40;;;30.00;91.90;;;;;;5058781;28;20243;-61
2021/06/16 10:56:59;;;;;;;4.30;1.43;;;30.30;92.00;;;;;;5065045;28;20292;-62
2021/06/16 11:00:06;;;;;;;5.17;1.30;;;30.50;91.40;;;;;;5064499;28;20270;-62
2021/06/16 11:03:02;;;;;;;3.63;1.30;;;30.70;91.20;;;;;;5030965;28;20667;-63
2021/06/16 11:05:40;;;;;;;4.13;1.50;;;30.60;91.30;;;;;;5056669;28;20224;-61
2021/06/16 11:08:14;;;;;;;4.67;1.60;;;30.60;90.90;;;;;;5063625;28;20409;-63
2021/06/16 11:10:52;;;;;;;3.17;1.30;;;30.70;90.70;;;;;;5063156;28;20306;-62
2021/06/16 11:13:43;;;;;;;4.63;1.50;;;31.20;90.40;;;;;;5064301;28;20646;-62
2021/06/16 11:16:52;;;;;;;4.07;1.47;;;30.90;86.20;;;;;;5054016;28;20673;-62
2021/06/16 11:19:23;;;;;;;3.33;1.40;;;30.80;89.60;;;;;;5064335;28;20598;-62
2021/06/16 11:21:52;;;;;;;2.77;1.57;;;31.20;89.80;;;;;;5064387;28;20859;-63
2021/06/16 11:24:20;;;;;;;3.40;1.47;;;31.80;89.40;;;;;;5064304;28;20436;-62
2021/06/16 11:26:50;;;;;;;4.10;1.67;;;32.20;89.10;;;;;;5064500;28;20322;-61
2021/06/16 11:29:58;;;;;;;3.53;1.40;;;32.20;87.70;;;;;;5063981;28;20575;-63
2021/06/16 11:32:27;;;;;;;3.27;1.40;;;32.30;88.10;;;;;;5048652;28;20692;-62
2021/06/16 11:34:56;;;;;;;5.47;1.80;;;32.30;87.00;;;;;;5063678;28;20309;-62
2021/06/16 11:38:01;;;;;;;4.27;1.43;;;31.80;84.70;;;;;;5063975;28;20251;-62
2021/06/16 11:40:31;;;;;;;4.73;1.50;;;31.50;85.70;;;;;;5056309;28;20253;-62
2021/06/16 11:42:59;;;;;;;2.03;1.20;;;31.50;88.00;;;;;;5055434;28;20277;-63
2021/06/16 11:45:29;;;;;;;4.90;1.70;;;31.50;88.70;;;;;;5063316;28;20612;-63
2021/06/16 11:48:01;;;;;;;4.57;1.60;;;31.40;87.40;;;;;;5064102;28;20636;-62
2021/06/16 11:50:30;;;;;;;4.13;1.60;;;31.30;86.40;;;;;;5055841;28;20231;-61
2021/06/16 11:53:03;;;;;;;3.73;1.70;;;32.00;87.20;;;;;;5063947;28;20721;-62
2021/06/16 11:55:42;;;;;;;3.70;1.70;;;32.20;86.30;;;;;;5063841;28;20633;-62
2021/06/16 11:58:28;;;;;;;3.73;1.60;;;31.60;85.50;;;;;;5072362;28;20243;-62
2021/06/16 12:01:16;;;;;;;2.93;1.60;;;30.90;85.80;;;;;;5063700;28;20269;-62
2021/06/16 12:03:57;;;;;;;2.53;1.47;;;30.50;87.90;;;;;;5062550;28;20259;-62
2021/06/16 12:06:25;;;;;;;4.80;1.33;;;30.10;85.70;;;;;;5054514;28;20604;-62
2021/06/16 12:08:57;;;;;;;3.43;1.60;;;29.80;88.70;;;;;;5063547;28;20244;-62
2021/06/16 12:11:28;;;;;;;3.27;1.50;;;29.40;89.30;;;;;;5057561;28;20277;-62
2021/06/16 12:14:02;;;;;;;3.53;1.70;;;29.30;90.30;;;;;;5067416;28;20706;-62
2021/06/16 12:16:33;;;;;;;2.43;1.30;;;29.20;89.50;;;;;;5064132;28;20757;-62
2021/06/16 12:19:14;;;;;;;4.20;1.60;;;29.60;90.50;;;;;;5063527;28;20297;-62
2021/06/16 12:21:59;;;;;;;5.60;1.50;;;29.60;88.40;;;;;;5063434;28;20247;-62
2021/06/16 12:24:31;;;;;;;3.87;1.70;;;29.80;89.20;;;;;;5063242;28;20560;-62
2021/06/16 12:27:15;;;;;;;3.90;1.50;;;29.80;89.60;;;;;;5075703;28;20613;-62
2021/06/16 12:29:46;;;;;;;3.57;1.70;;;29.80;88.00;;;;;;5059742;28;20243;-62
2021/06/16 12:32:24;;;;;;;5.70;1.60;;;29.50;90.10;;;;;;5063911;28;21008;-62
2021/06/16 12:35:13;;;;;;;2.87;1.43;;;29.50;87.40;;;;;;5063309;28;20276;-62
2021/06/16 12:37:49;;;;;;;2.83;1.50;;;29.50;90.50;;;;;;5043649;28;20258;-62
2021/06/16 12:40:18;;;;;;;2.23;1.37;;;29.70;90.40;;;;;;5063270;28;20238;-62
2021/06/16 12:42:48;;;;;;;4.73;1.60;;;29.90;90.20;;;;;;5063366;28;20235;-62
2021/06/16 12:45:34;;;;;;;3.03;1.80;;;29.80;89.40;;;;;;5063346;28;20263;-62
2021/06/16 12:48:23;;;;;;;3.30;1.70;;;29.80;90.00;;;;;;5062540;28;20247;-62
2021/06/16 12:50:59;;;;;;;3.07;1.77;;;29.80;89.80;;;;;;5062219;28;20248;-62
2021/06/16 12:53:28;;;;;;;3.80;1.57;;;29.70;88.70;;;;;;5061966;28;20656;-62
2021/06/16 12:55:59;;;;;;;2.83;1.80;;;29.70;90.20;;;;;;5062484;28;20321;-62
2021/06/16 12:58:27;;;;;;;2.70;1.70;;;29.40;89.60;;;;;;5062317;28;20864;-62
2021/06/16 13:00:57;;;;;;;4.20;1.80;;;29.40;90.70;;;;;;5062293;28;20251;-63
2021/06/16 13:03:26;;;;;;;2.43;1.57;;;29.40;91.10;;;;;;5062308;28;20781;-62
2021/06/16 13:05:57;;;;;;;3.47;2.00;;;29.50;90.40;;;;;;5062680;28;20706;-63
2021/06/16 13:08:37;;;;;;;2.20;1.70;;;29.50;90.70;;;;;;5061923;28;20621;-62